Durbin, North Dakota
Current Conditions -  °F | °C
As of 5:53 AM on Wednesday 28 Jan 2015 (Local Time) from KFAR Reporting Station
Overcast Overcast  
Wind Chill: 23°   Ceiling: 700
Heat Index: 34°   Visibility: 7mi
Dew Point: 31°   Wind: 18mph
Humidity: 89%   Direction: 160°SSE
Pressure: 29.81"   Gusts: NA
Location:  46.834°N, 97.0841°W
Report Text: KFAR 281153Z 16016KT 7SM OVC007 01/M01 A2981 RMK AO2 SLP106 T00111006 10017 20011 56008
Loading
Personal Weather Stations






























Interactive Weather Map New forecast layout! Learn more

10-Day Weather Forecast

Advertisements
Track Severe Weather on mobile